Allin, Illinois
Current Conditions -  °F | °C
As of 2:56 PM on Monday 24 Nov 2014 (Local Time) from KBMI Reporting Station
Overcast Overcast  
Wind Chill: 18°   Ceiling: 1700
Heat Index: 31°   Visibility: 10mi
Dew Point: 27°   Wind: 22mph
Humidity: 85%   Direction: 250°WSW
Pressure: 29.66"   Gusts: 32mph
Location:  40.4427°N, 89.2086°W
Report Text: KBMI 242056Z 25019G28KT 10SM OVC017 M01/M03 A2966 RMK AO2 53045 60000 T10051027 PK WND 26032/2034 PRESRR SLP051
Loading
Personal Weather Stations






























Interactive Weather Map New forecast layout! Learn more

10-Day Weather Forecast

Advertisements
Track Severe Weather on mobile